Terminal Aerodrome Forecast
Issued by NWS

Home | Current Version | Previous Version | Text Only | Print | Product List | Glossary Off
Versions: 1 2 3 4 5 6 7 8 9 10 11 12 13 14 15 16 17 18 19 20

000
FTUS45 KGGW 022300
TAFSDY
TAF
KSDY 022320Z 0300/0324 33008KT P6SM SCT070 BKN250
     FM030300 VRB06KT 5SM FU BKN250
     FM031500 VRB06KT P6SM BKN250
      AMD LTD TO CLD VIS AND WIND=

USA.gov is the U.S. government's official web portal to all federal, state and local government web resources and services.